sensor_id;sensor_type;location;lat;lon;timestamp;temperature;humidity
11772;DHT22;12556;55.748;13.194;2022-09-12T00:00:05;11.30;99.90
11772;DHT22;12556;55.748;13.194;2022-09-12T00:02:32;11.30;99.90
11772;DHT22;12556;55.748;13.194;2022-09-12T00:04:58;11.30;99.90
11772;DHT22;12556;55.748;13.194;2022-09-12T00:07:25;11.20;99.90
11772;DHT22;12556;55.748;13.194;2022-09-12T00:09:52;11.20;99.90
11772;DHT22;12556;55.748;13.194;2022-09-12T00:12:20;11.10;99.90
11772;DHT22;12556;55.748;13.194;2022-09-12T00:14:47;11.20;99.90
11772;DHT22;12556;55.748;13.194;2022-09-12T00:17:14;11.10;99.90
11772;DHT22;12556;55.748;13.194;2022-09-12T00:19:41;11.10;99.90
11772;DHT22;12556;55.748;13.194;2022-09-12T00:22:08;11.10;99.90
11772;DHT22;12556;55.748;13.194;2022-09-12T00:24:34;11.10;99.90
11772;DHT22;12556;55.748;13.194;2022-09-12T00:27:01;11.00;99.90
11772;DHT22;12556;55.748;13.194;2022-09-12T00:29:30;11.00;99.90
11772;DHT22;12556;55.748;13.194;2022-09-12T00:31:56;11.00;99.90
11772;DHT22;12556;55.748;13.194;2022-09-12T00:34:23;10.90;99.90
11772;DHT22;12556;55.748;13.194;2022-09-12T00:36:50;10.90;99.90
11772;DHT22;12556;55.748;13.194;2022-09-12T00:39:17;10.80;99.90
11772;DHT22;12556;55.748;13.194;2022-09-12T00:41:44;10.80;99.90
11772;DHT22;12556;55.748;13.194;2022-09-12T00:44:43;10.80;99.90
11772;DHT22;12556;55.748;13.194;2022-09-12T00:47:15;10.80;99.90
11772;DHT22;12556;55.748;13.194;2022-09-12T00:49:46;10.70;99.90
11772;DHT22;12556;55.748;13.194;2022-09-12T00:52:16;10.70;99.90
11772;DHT22;12556;55.748;13.194;2022-09-12T00:54:48;10.60;99.90
11772;DHT22;12556;55.748;13.194;2022-09-12T00:57:18;10.60;99.90
11772;DHT22;12556;55.748;13.194;2022-09-12T00:59:50;10.60;99.90
11772;DHT22;12556;55.748;13.194;2022-09-12T01:02:18;10.60;99.90
11772;DHT22;12556;55.748;13.194;2022-09-12T01:04:46;10.50;99.90
11772;DHT22;12556;55.748;13.194;2022-09-12T01:07:14;10.50;99.90
11772;DHT22;12556;55.748;13.194;2022-09-12T01:09:41;10.50;99.90
11772;DHT22;12556;55.748;13.194;2022-09-12T01:12:08;10.50;99.90
11772;DHT22;12556;55.748;13.194;2022-09-12T01:14:35;10.40;99.90
11772;DHT22;12556;55.748;13.194;2022-09-12T01:17:04;10.40;99.90
11772;DHT22;12556;55.748;13.194;2022-09-12T01:19:49;10.40;99.90
11772;DHT22;12556;55.748;13.194;2022-09-12T01:22:39;10.40;99.90
11772;DHT22;12556;55.748;13.194;2022-09-12T01:25:19;10.40;99.90
11772;DHT22;12556;55.748;13.194;2022-09-12T01:28:02;10.30;99.90
11772;DHT22;12556;55.748;13.194;2022-09-12T01:30:48;10.30;99.90
11772;DHT22;12556;55.748;13.194;2022-09-12T01:33:41;10.30;99.90
11772;DHT22;12556;55.748;13.194;2022-09-12T01:36:31;10.30;99.90
11772;DHT22;12556;55.748;13.194;2022-09-12T01:39:02;10.20;99.90
11772;DHT22;12556;55.748;13.194;2022-09-12T01:41:38;10.20;99.90
11772;DHT22;12556;55.748;13.194;2022-09-12T01:44:13;10.20;99.90
11772;DHT22;12556;55.748;13.194;2022-09-12T01:46:49;10.20;99.90
11772;DHT22;12556;55.748;13.194;2022-09-12T01:49:21;10.20;99.90
11772;DHT22;12556;55.748;13.194;2022-09-12T01:51:54;10.20;99.90
11772;DHT22;12556;55.748;13.194;2022-09-12T01:54:26;10.20;99.90
11772;DHT22;12556;55.748;13.194;2022-09-12T01:56:58;10.10;99.90
11772;DHT22;12556;55.748;13.194;2022-09-12T01:59:31;10.10;99.90
11772;DHT22;12556;55.748;13.194;2022-09-12T02:02:04;10.10;99.90
11772;DHT22;12556;55.748;13.194;2022-09-12T02:04:37;10.10;99.90
11772;DHT22;12556;55.748;13.194;2022-09-12T02:07:11;10.10;99.90
11772;DHT22;12556;55.748;13.194;2022-09-12T02:09:43;10.10;99.90
11772;DHT22;12556;55.748;13.194;2022-09-12T02:12:14;10.10;99.90
11772;DHT22;12556;55.748;13.194;2022-09-12T02:14:46;10.10;99.90
11772;DHT22;12556;55.748;13.194;2022-09-12T02:17:18;10.10;99.90
11772;DHT22;12556;55.748;13.194;2022-09-12T02:19:49;10.10;99.90
11772;DHT22;12556;55.748;13.194;2022-09-12T02:22:20;10.10;99.90
11772;DHT22;12556;55.748;13.194;2022-09-12T02:24:51;10.10;99.90
11772;DHT22;12556;55.748;13.194;2022-09-12T02:27:21;10.10;99.90
11772;DHT22;12556;55.748;13.194;2022-09-12T02:29:49;10.10;99.90
11772;DHT22;12556;55.748;13.194;2022-09-12T02:32:23;10.10;99.90
11772;DHT22;12556;55.748;13.194;2022-09-12T02:34:56;10.10;99.90
11772;DHT22;12556;55.748;13.194;2022-09-12T02:37:35;10.20;99.90
11772;DHT22;12556;55.748;13.194;2022-09-12T02:40:06;10.20;99.90
11772;DHT22;12556;55.748;13.194;2022-09-12T02:42:34;10.20;99.90
11772;DHT22;12556;55.748;13.194;2022-09-12T02:45:02;10.20;99.90
11772;DHT22;12556;55.748;13.194;2022-09-12T02:47:35;10.10;99.90
11772;DHT22;12556;55.748;13.194;2022-09-12T02:50:04;10.20;99.90
11772;DHT22;12556;55.748;13.194;2022-09-12T02:52:33;10.10;99.90
11772;DHT22;12556;55.748;13.194;2022-09-12T02:55:01;10.10;99.90
11772;DHT22;12556;55.748;13.194;2022-09-12T02:57:29;10.10;99.90
11772;DHT22;12556;55.748;13.194;2022-09-12T02:59:59;10.10;99.90
11772;DHT22;12556;55.748;13.194;2022-09-12T03:02:34;10.10;99.90
11772;DHT22;12556;55.748;13.194;2022-09-12T03:05:20;10.10;99.90
11772;DHT22;12556;55.748;13.194;2022-09-12T03:08:12;10.10;99.90
11772;DHT22;12556;55.748;13.194;2022-09-12T03:10:55;10.10;99.90
11772;DHT22;12556;55.748;13.194;2022-09-12T03:13:32;10.10;99.90
11772;DHT22;12556;55.748;13.194;2022-09-12T03:16:08;10.10;99.90
11772;DHT22;12556;55.748;13.194;2022-09-12T03:18:50;10.00;99.90
11772;DHT22;12556;55.748;13.194;2022-09-12T03:21:22;10.00;99.90
11772;DHT22;12556;55.748;13.194;2022-09-12T03:23:59;10.00;99.90
11772;DHT22;12556;55.748;13.194;2022-09-12T03:26:33;10.00;99.90
11772;DHT22;12556;55.748;13.194;2022-09-12T03:29:04;10.00;99.90
11772;DHT22;12556;55.748;13.194;2022-09-12T03:31:32;10.10;99.90
11772;DHT22;12556;55.748;13.194;2022-09-12T03:34:00;10.00;99.90
11772;DHT22;12556;55.748;13.194;2022-09-12T03:36:28;10.00;99.90
11772;DHT22;12556;55.748;13.194;2022-09-12T03:38:56;10.00;99.90
11772;DHT22;12556;55.748;13.194;2022-09-12T03:41:23;10.00;99.90
11772;DHT22;12556;55.748;13.194;2022-09-12T03:43:50;10.00;99.90
11772;DHT22;12556;55.748;13.194;2022-09-12T03:46:17;10.00;99.90
11772;DHT22;12556;55.748;13.194;2022-09-12T03:48:43;10.00;99.90
11772;DHT22;12556;55.748;13.194;2022-09-12T03:51:12;10.00;99.90
11772;DHT22;12556;55.748;13.194;2022-09-12T03:53:38;10.00;99.90
11772;DHT22;12556;55.748;13.194;2022-09-12T03:56:06;10.00;99.90
11772;DHT22;12556;55.748;13.194;2022-09-12T03:58:34;10.00;99.90
11772;DHT22;12556;55.748;13.194;2022-09-12T04:01:06;10.00;99.90
11772;DHT22;12556;55.748;13.194;2022-09-12T04:03:37;10.00;99.90
11772;DHT22;12556;55.748;13.194;2022-09-12T04:06:05;9.90;99.90
11772;DHT22;12556;55.748;13.194;2022-09-12T04:08:33;9.90;99.90
11772;DHT22;12556;55.748;13.194;2022-09-12T04:11:04;9.80;99.90
11772;DHT22;12556;55.748;13.194;2022-09-12T04:13:31;9.90;99.90
11772;DHT22;12556;55.748;13.194;2022-09-12T04:15:59;9.80;99.90
11772;DHT22;12556;55.748;13.194;2022-09-12T04:18:26;9.90;99.90
11772;DHT22;12556;55.748;13.194;2022-09-12T04:20:53;9.90;99.90
11772;DHT22;12556;55.748;13.194;2022-09-12T04:23:20;9.90;99.90
11772;DHT22;12556;55.748;13.194;2022-09-12T04:25:54;9.90;99.90
11772;DHT22;12556;55.748;13.194;2022-09-12T04:28:22;9.90;99.90
11772;DHT22;12556;55.748;13.194;2022-09-12T04:30:49;9.90;99.90
11772;DHT22;12556;55.748;13.194;2022-09-12T04:33:16;9.90;99.90
11772;DHT22;12556;55.748;13.194;2022-09-12T04:35:43;9.80;99.90
11772;DHT22;12556;55.748;13.194;2022-09-12T04:38:11;9.90;99.90
11772;DHT22;12556;55.748;13.194;2022-09-12T04:40:37;9.90;99.90
11772;DHT22;12556;55.748;13.194;2022-09-12T04:43:06;9.90;99.90
11772;DHT22;12556;55.748;13.194;2022-09-12T04:45:33;9.90;99.90
11772;DHT22;12556;55.748;13.194;2022-09-12T04:48:00;10.00;99.90
11772;DHT22;12556;55.748;13.194;2022-09-12T04:50:28;10.00;99.90
11772;DHT22;12556;55.748;13.194;2022-09-12T04:52:55;10.00;99.90
11772;DHT22;12556;55.748;13.194;2022-09-12T04:55:22;10.10;99.90
11772;DHT22;12556;55.748;13.194;2022-09-12T04:57:49;10.10;99.90
11772;DHT22;12556;55.748;13.194;2022-09-12T05:00:18;10.20;99.90
11772;DHT22;12556;55.748;13.194;2022-09-12T05:02:45;10.20;99.90
11772;DHT22;12556;55.748;13.194;2022-09-12T05:05:12;10.30;99.90
11772;DHT22;12556;55.748;13.194;2022-09-12T05:07:39;10.30;99.90
11772;DHT22;12556;55.748;13.194;2022-09-12T05:10:07;10.40;99.90
11772;DHT22;12556;55.748;13.194;2022-09-12T05:12:34;10.40;99.90
11772;DHT22;12556;55.748;13.194;2022-09-12T05:15:01;10.40;99.90
11772;DHT22;12556;55.748;13.194;2022-09-12T05:17:30;10.50;99.90
11772;DHT22;12556;55.748;13.194;2022-09-12T05:19:57;10.50;99.90
11772;DHT22;12556;55.748;13.194;2022-09-12T05:22:25;10.60;99.90
11772;DHT22;12556;55.748;13.194;2022-09-12T05:24:52;10.60;99.90
11772;DHT22;12556;55.748;13.194;2022-09-12T05:27:18;10.70;99.90
11772;DHT22;12556;55.748;13.194;2022-09-12T05:29:45;10.70;99.90
11772;DHT22;12556;55.748;13.194;2022-09-12T05:32:12;10.80;99.90
11772;DHT22;12556;55.748;13.194;2022-09-12T05:34:40;10.70;99.90
11772;DHT22;12556;55.748;13.194;2022-09-12T05:37:07;10.80;99.90
11772;DHT22;12556;55.748;13.194;2022-09-12T05:39:34;10.80;99.90
11772;DHT22;12556;55.748;13.194;2022-09-12T05:42:01;10.80;99.90
11772;DHT22;12556;55.748;13.194;2022-09-12T05:44:28;10.80;99.90
11772;DHT22;12556;55.748;13.194;2022-09-12T05:46:55;10.80;99.90
11772;DHT22;12556;55.748;13.194;2022-09-12T05:49:22;10.90;99.90
11772;DHT22;12556;55.748;13.194;2022-09-12T05:51:50;11.00;99.90
11772;DHT22;12556;55.748;13.194;2022-09-12T05:54:18;11.00;99.90
11772;DHT22;12556;55.748;13.194;2022-09-12T05:56:46;11.10;99.90
11772;DHT22;12556;55.748;13.194;2022-09-12T05:59:15;11.20;99.90
11772;DHT22;12556;55.748;13.194;2022-09-12T06:01:43;11.20;99.90
11772;DHT22;12556;55.748;13.194;2022-09-12T06:04:10;11.30;99.90
11772;DHT22;12556;55.748;13.194;2022-09-12T06:06:38;11.40;99.90
11772;DHT22;12556;55.748;13.194;2022-09-12T06:09:08;11.50;99.90
11772;DHT22;12556;55.748;13.194;2022-09-12T06:11:37;11.60;99.90
11772;DHT22;12556;55.748;13.194;2022-09-12T06:14:06;11.70;99.90
11772;DHT22;12556;55.748;13.194;2022-09-12T06:16:33;11.70;99.90
11772;DHT22;12556;55.748;13.194;2022-09-12T06:19:02;11.80;99.90
11772;DHT22;12556;55.748;13.194;2022-09-12T06:21:30;11.90;99.90
11772;DHT22;12556;55.748;13.194;2022-09-12T06:23:57;12.00;99.90
11772;DHT22;12556;55.748;13.194;2022-09-12T06:26:29;12.10;99.90
11772;DHT22;12556;55.748;13.194;2022-09-12T06:28:58;12.20;99.90
11772;DHT22;12556;55.748;13.194;2022-09-12T06:31:26;12.30;99.90
11772;DHT22;12556;55.748;13.194;2022-09-12T06:33:55;12.40;99.90
11772;DHT22;12556;55.748;13.194;2022-09-12T06:36:25;12.50;99.90
11772;DHT22;12556;55.748;13.194;2022-09-12T06:38:53;12.60;99.90
11772;DHT22;12556;55.748;13.194;2022-09-12T06:41:22;12.70;99.90
11772;DHT22;12556;55.748;13.194;2022-09-12T06:43:51;12.80;99.90
11772;DHT22;12556;55.748;13.194;2022-09-12T06:46:18;12.90;99.90
11772;DHT22;12556;55.748;13.194;2022-09-12T06:48:46;13.00;99.90
11772;DHT22;12556;55.748;13.194;2022-09-12T06:51:14;13.10;99.90
11772;DHT22;12556;55.748;13.194;2022-09-12T06:53:41;13.20;99.90
11772;DHT22;12556;55.748;13.194;2022-09-12T06:56:10;13.30;99.90
11772;DHT22;12556;55.748;13.194;2022-09-12T06:58:38;13.50;99.90
11772;DHT22;12556;55.748;13.194;2022-09-12T07:01:08;13.60;99.90
11772;DHT22;12556;55.748;13.194;2022-09-12T07:03:36;13.70;99.90
11772;DHT22;12556;55.748;13.194;2022-09-12T07:06:04;13.80;99.90
11772;DHT22;12556;55.748;13.194;2022-09-12T07:08:32;13.90;99.90
11772;DHT22;12556;55.748;13.194;2022-09-12T07:11:06;14.10;99.90
11772;DHT22;12556;55.748;13.194;2022-09-12T07:13:33;14.20;99.90
11772;DHT22;12556;55.748;13.194;2022-09-12T07:16:00;14.40;99.90
11772;DHT22;12556;55.748;13.194;2022-09-12T07:18:29;14.50;99.90
11772;DHT22;12556;55.748;13.194;2022-09-12T07:20:58;14.70;99.90
11772;DHT22;12556;55.748;13.194;2022-09-12T07:23:25;14.80;99.90
11772;DHT22;12556;55.748;13.194;2022-09-12T07:25:52;15.00;99.90
11772;DHT22;12556;55.748;13.194;2022-09-12T07:28:21;15.10;99.90
11772;DHT22;12556;55.748;13.194;2022-09-12T07:30:49;15.30;99.90
11772;DHT22;12556;55.748;13.194;2022-09-12T07:33:18;15.60;99.90
11772;DHT22;12556;55.748;13.194;2022-09-12T07:35:47;15.80;99.90
11772;DHT22;12556;55.748;13.194;2022-09-12T07:38:14;16.00;99.90
11772;DHT22;12556;55.748;13.194;2022-09-12T07:40:41;16.20;99.90
11772;DHT22;12556;55.748;13.194;2022-09-12T07:43:09;16.40;99.90
11772;DHT22;12556;55.748;13.194;2022-09-12T07:45:36;16.50;99.90
11772;DHT22;12556;55.748;13.194;2022-09-12T07:48:05;16.70;99.90
11772;DHT22;12556;55.748;13.194;2022-09-12T07:50:32;16.90;99.90
11772;DHT22;12556;55.748;13.194;2022-09-12T07:53:02;17.00;99.90
11772;DHT22;12556;55.748;13.194;2022-09-12T07:55:29;17.10;99.90
11772;DHT22;12556;55.748;13.194;2022-09-12T07:57:56;17.20;99.90
11772;DHT22;12556;55.748;13.194;2022-09-12T08:00:23;17.40;99.90
11772;DHT22;12556;55.748;13.194;2022-09-12T08:02:51;17.70;99.90
11772;DHT22;12556;55.748;13.194;2022-09-12T08:05:19;17.80;99.90
11772;DHT22;12556;55.748;13.194;2022-09-12T08:07:46;18.00;99.90
11772;DHT22;12556;55.748;13.194;2022-09-12T08:10:15;18.20;99.90
11772;DHT22;12556;55.748;13.194;2022-09-12T08:12:42;18.50;99.90
11772;DHT22;12556;55.748;13.194;2022-09-12T08:15:09;18.50;99.90
11772;DHT22;12556;55.748;13.194;2022-09-12T08:17:36;18.50;99.90
11772;DHT22;12556;55.748;13.194;2022-09-12T08:20:04;18.70;99.90
11772;DHT22;12556;55.748;13.194;2022-09-12T08:22:31;18.90;99.90
11772;DHT22;12556;55.748;13.194;2022-09-12T08:24:58;19.10;99.90
11772;DHT22;12556;55.748;13.194;2022-09-12T08:27:26;19.30;99.90
11772;DHT22;12556;55.748;13.194;2022-09-12T08:29:53;19.50;99.90
11772;DHT22;12556;55.748;13.194;2022-09-12T08:32:20;19.70;99.90
11772;DHT22;12556;55.748;13.194;2022-09-12T08:34:47;19.90;99.90
11772;DHT22;12556;55.748;13.194;2022-09-12T08:37:14;20.00;99.90
11772;DHT22;12556;55.748;13.194;2022-09-12T08:39:41;20.20;99.90
11772;DHT22;12556;55.748;13.194;2022-09-12T08:42:09;20.50;99.90
11772;DHT22;12556;55.748;13.194;2022-09-12T08:44:53;20.70;99.90
11772;DHT22;12556;55.748;13.194;2022-09-12T08:47:26;20.60;99.90
11772;DHT22;12556;55.748;13.194;2022-09-12T08:50:08;20.60;99.90
11772;DHT22;12556;55.748;13.194;2022-09-12T08:52:39;20.70;99.90
11772;DHT22;12556;55.748;13.194;2022-09-12T08:55:22;20.90;99.90
11772;DHT22;12556;55.748;13.194;2022-09-12T08:57:50;21.10;99.90
11772;DHT22;12556;55.748;13.194;2022-09-12T09:00:19;21.10;99.90
11772;DHT22;12556;55.748;13.194;2022-09-12T09:03:02;21.30;99.90
11772;DHT22;12556;55.748;13.194;2022-09-12T09:05:44;21.40;99.90
11772;DHT22;12556;55.748;13.194;2022-09-12T09:08:34;21.50;99.90
11772;DHT22;12556;55.748;13.194;2022-09-12T09:11:13;21.60;99.90
11772;DHT22;12556;55.748;13.194;2022-09-12T09:13:53;21.50;99.90
11772;DHT22;12556;55.748;13.194;2022-09-12T09:16:43;21.40;99.90
11772;DHT22;12556;55.748;13.194;2022-09-12T09:19:15;21.30;99.90
11772;DHT22;12556;55.748;13.194;2022-09-12T09:21:48;21.00;99.90
11772;DHT22;12556;55.748;13.194;2022-09-12T09:24:20;20.90;99.90
11772;DHT22;12556;55.748;13.194;2022-09-12T09:26:55;20.90;99.90
11772;DHT22;12556;55.748;13.194;2022-09-12T09:29:25;20.90;99.90
11772;DHT22;12556;55.748;13.194;2022-09-12T09:31:56;20.90;99.90
11772;DHT22;12556;55.748;13.194;2022-09-12T09:34:27;20.90;99.90
11772;DHT22;12556;55.748;13.194;2022-09-12T09:37:01;20.90;99.90
11772;DHT22;12556;55.748;13.194;2022-09-12T09:39:39;21.00;99.90
11772;DHT22;12556;55.748;13.194;2022-09-12T09:42:17;21.10;99.90
11772;DHT22;12556;55.748;13.194;2022-09-12T09:44:49;21.30;99.90
11772;DHT22;12556;55.748;13.194;2022-09-12T09:47:19;21.50;99.90
11772;DHT22;12556;55.748;13.194;2022-09-12T09:49:46;21.70;99.90
11772;DHT22;12556;55.748;13.194;2022-09-12T09:52:15;21.80;99.90
11772;DHT22;12556;55.748;13.194;2022-09-12T09:54:46;22.00;99.90
11772;DHT22;12556;55.748;13.194;2022-09-12T09:57:43;22.20;99.90
11772;DHT22;12556;55.748;13.194;2022-09-12T10:00:25;22.50;99.90
11772;DHT22;12556;55.748;13.194;2022-09-12T10:03:14;22.80;99.90
11772;DHT22;12556;55.748;13.194;2022-09-12T10:05:49;23.00;99.90
11772;DHT22;12556;55.748;13.194;2022-09-12T10:08:22;23.10;99.90
11772;DHT22;12556;55.748;13.194;2022-09-12T10:10:55;23.20;99.90
11772;DHT22;12556;55.748;13.194;2022-09-12T10:13:26;23.40;99.90
11772;DHT22;12556;55.748;13.194;2022-09-12T10:15:57;23.60;99.70
11772;DHT22;12556;55.748;13.194;2022-09-12T10:18:38;23.70;99.10
11772;DHT22;12556;55.748;13.194;2022-09-12T10:21:24;23.90;98.70
11772;DHT22;12556;55.748;13.194;2022-09-12T10:23:58;23.90;98.50
11772;DHT22;12556;55.748;13.194;2022-09-12T10:26:31;24.00;98.30
11772;DHT22;12556;55.748;13.194;2022-09-12T10:29:03;24.20;97.90
11772;DHT22;12556;55.748;13.194;2022-09-12T10:31:39;24.40;97.40
11772;DHT22;12556;55.748;13.194;2022-09-12T10:34:20;24.60;97.00
11772;DHT22;12556;55.748;13.194;2022-09-12T10:36:51;24.70;96.70
11772;DHT22;12556;55.748;13.194;2022-09-12T10:39:19;24.70;97.00
11772;DHT22;12556;55.748;13.194;2022-09-12T10:41:46;25.00;96.60
11772;DHT22;12556;55.748;13.194;2022-09-12T10:44:16;25.10;95.70
11772;DHT22;12556;55.748;13.194;2022-09-12T10:46:43;25.00;95.50
11772;DHT22;12556;55.748;13.194;2022-09-12T10:49:24;24.90;95.80
11772;DHT22;12556;55.748;13.194;2022-09-12T10:51:51;24.80;95.60
11772;DHT22;12556;55.748;13.194;2022-09-12T10:54:21;24.90;95.30
11772;DHT22;12556;55.748;13.194;2022-09-12T10:57:10;24.80;94.90
11772;DHT22;12556;55.748;13.194;2022-09-12T11:00:00;24.90;95.10
11772;DHT22;12556;55.748;13.194;2022-09-12T11:02:29;25.00;95.20
11772;DHT22;12556;55.748;13.194;2022-09-12T11:05:06;24.90;94.90
11772;DHT22;12556;55.748;13.194;2022-09-12T11:07:42;25.00;94.40
11772;DHT22;12556;55.748;13.194;2022-09-12T11:10:28;24.80;94.10
11772;DHT22;12556;55.748;13.194;2022-09-12T11:13:03;24.60;93.90
11772;DHT22;12556;55.748;13.194;2022-09-12T11:15:44;24.50;94.40
11772;DHT22;12556;55.748;13.194;2022-09-12T11:18:24;24.30;94.50
11772;DHT22;12556;55.748;13.194;2022-09-12T11:21:08;24.00;94.70
11772;DHT22;12556;55.748;13.194;2022-09-12T11:26:56;23.70;95.10
11772;DHT22;12556;55.748;13.194;2022-09-12T11:29:38;24.00;95.00
11772;DHT22;12556;55.748;13.194;2022-09-12T11:32:21;24.30;94.70
11772;DHT22;12556;55.748;13.194;2022-09-12T11:35:04;24.50;94.50
11772;DHT22;12556;55.748;13.194;2022-09-12T11:37:58;24.60;94.50
11772;DHT22;12556;55.748;13.194;2022-09-12T11:40:31;25.00;94.10
11772;DHT22;12556;55.748;13.194;2022-09-12T11:43:02;25.10;93.90
11772;DHT22;12556;55.748;13.194;2022-09-12T11:45:37;25.20;93.90
11772;DHT22;12556;55.748;13.194;2022-09-12T11:48:10;25.20;93.60
11772;DHT22;12556;55.748;13.194;2022-09-12T11:50:39;25.30;93.60
11772;DHT22;12556;55.748;13.194;2022-09-12T11:53:14;25.40;93.40
11772;DHT22;12556;55.748;13.194;2022-09-12T11:55:52;25.60;92.90
11772;DHT22;12556;55.748;13.194;2022-09-12T11:58:23;25.70;92.60
11772;DHT22;12556;55.748;13.194;2022-09-12T12:00:54;25.90;92.40
11772;DHT22;12556;55.748;13.194;2022-09-12T12:03:27;26.00;92.10
11772;DHT22;12556;55.748;13.194;2022-09-12T12:06:00;26.10;91.60
11772;DHT22;12556;55.748;13.194;2022-09-12T12:08:32;26.10;91.70
11772;DHT22;12556;55.748;13.194;2022-09-12T12:11:05;26.00;91.40
11772;DHT22;12556;55.748;13.194;2022-09-12T12:13:35;26.20;91.30
11772;DHT22;12556;55.748;13.194;2022-09-12T12:16:06;26.20;91.10
11772;DHT22;12556;55.748;13.194;2022-09-12T12:18:36;26.30;91.00
11772;DHT22;12556;55.748;13.194;2022-09-12T12:21:30;26.30;90.90
11772;DHT22;12556;55.748;13.194;2022-09-12T12:24:12;26.00;90.90
11772;DHT22;12556;55.748;13.194;2022-09-12T12:26:42;25.80;91.40
11772;DHT22;12556;55.748;13.194;2022-09-12T12:29:10;25.90;91.10
11772;DHT22;12556;55.748;13.194;2022-09-12T12:34:38;25.60;91.10
11772;DHT22;12556;55.748;13.194;2022-09-12T12:40:22;25.00;91.70
11772;DHT22;12556;55.748;13.194;2022-09-12T12:43:08;24.80;91.80
11772;DHT22;12556;55.748;13.194;2022-09-12T12:46:09;24.60;92.00
11772;DHT22;12556;55.748;13.194;2022-09-12T12:51:58;24.10;91.90
11772;DHT22;12556;55.748;13.194;2022-09-12T12:57:32;23.80;92.00
11772;DHT22;12556;55.748;13.194;2022-09-12T13:00:04;23.60;92.00
11772;DHT22;12556;55.748;13.194;2022-09-12T13:02:35;23.50;92.00
11772;DHT22;12556;55.748;13.194;2022-09-12T13:05:15;23.30;92.10
11772;DHT22;12556;55.748;13.194;2022-09-12T13:07:43;23.30;92.20
11772;DHT22;12556;55.748;13.194;2022-09-12T13:10:21;23.30;92.20
11772;DHT22;12556;55.748;13.194;2022-09-12T13:12:50;23.30;91.90
11772;DHT22;12556;55.748;13.194;2022-09-12T13:15:48;23.30;91.90
11772;DHT22;12556;55.748;13.194;2022-09-12T13:18:22;23.30;92.10
11772;DHT22;12556;55.748;13.194;2022-09-12T13:20:53;23.30;92.00
11772;DHT22;12556;55.748;13.194;2022-09-12T13:23:22;23.20;91.70
11772;DHT22;12556;55.748;13.194;2022-09-12T13:25:52;23.20;91.70
11772;DHT22;12556;55.748;13.194;2022-09-12T13:28:21;23.10;92.00
11772;DHT22;12556;55.748;13.194;2022-09-12T13:30:56;22.90;92.20
11772;DHT22;12556;55.748;13.194;2022-09-12T13:33:30;22.80;92.40
11772;DHT22;12556;55.748;13.194;2022-09-12T13:36:36;22.80;92.60
11772;DHT22;12556;55.748;13.194;2022-09-12T13:39:14;22.80;92.60
11772;DHT22;12556;55.748;13.194;2022-09-12T13:44:53;22.80;92.60
11772;DHT22;12556;55.748;13.194;2022-09-12T13:47:25;22.70;92.60
11772;DHT22;12556;55.748;13.194;2022-09-12T13:49:55;22.60;92.40
11772;DHT22;12556;55.748;13.194;2022-09-12T13:52:25;22.50;92.50
11772;DHT22;12556;55.748;13.194;2022-09-12T13:54:55;22.40;92.70
11772;DHT22;12556;55.748;13.194;2022-09-12T13:57:29;22.40;92.50
11772;DHT22;12556;55.748;13.194;2022-09-12T13:59:58;22.30;92.60
11772;DHT22;12556;55.748;13.194;2022-09-12T14:02:27;22.30;93.20
11772;DHT22;12556;55.748;13.194;2022-09-12T14:04:55;22.20;93.00
11772;DHT22;12556;55.748;13.194;2022-09-12T14:07:39;22.10;92.90
11772;DHT22;12556;55.748;13.194;2022-09-12T14:10:16;22.00;93.10
11772;DHT22;12556;55.748;13.194;2022-09-12T14:12:46;21.90;93.20
11772;DHT22;12556;55.748;13.194;2022-09-12T14:15:18;21.80;93.20
11772;DHT22;12556;55.748;13.194;2022-09-12T14:17:49;21.80;93.10
11772;DHT22;12556;55.748;13.194;2022-09-12T14:20:18;21.70;93.20
11772;DHT22;12556;55.748;13.194;2022-09-12T14:22:48;21.60;93.30
11772;DHT22;12556;55.748;13.194;2022-09-12T14:25:18;21.60;93.60
11772;DHT22;12556;55.748;13.194;2022-09-12T14:27:47;21.50;93.90
11772;DHT22;12556;55.748;13.194;2022-09-12T14:30:23;21.50;93.60
11772;DHT22;12556;55.748;13.194;2022-09-12T14:33:17;21.40;93.90
11772;DHT22;12556;55.748;13.194;2022-09-12T14:35:46;21.40;94.10
11772;DHT22;12556;55.748;13.194;2022-09-12T14:38:23;21.30;94.00
11772;DHT22;12556;55.748;13.194;2022-09-12T14:40:58;21.30;94.30
11772;DHT22;12556;55.748;13.194;2022-09-12T14:43:27;21.20;94.50
11772;DHT22;12556;55.748;13.194;2022-09-12T14:45:59;21.20;94.70
11772;DHT22;12556;55.748;13.194;2022-09-12T14:48:28;21.20;95.30
11772;DHT22;12556;55.748;13.194;2022-09-12T14:50:57;21.10;95.10
11772;DHT22;12556;55.748;13.194;2022-09-12T14:53:30;21.10;95.20
11772;DHT22;12556;55.748;13.194;2022-09-12T14:56:06;21.10;95.40
11772;DHT22;12556;55.748;13.194;2022-09-12T14:58:33;21.10;95.50
11772;DHT22;12556;55.748;13.194;2022-09-12T15:01:21;21.00;95.50
11772;DHT22;12556;55.748;13.194;2022-09-12T15:03:50;21.00;95.70
11772;DHT22;12556;55.748;13.194;2022-09-12T15:06:21;20.90;95.70
11772;DHT22;12556;55.748;13.194;2022-09-12T15:08:51;20.90;95.70
11772;DHT22;12556;55.748;13.194;2022-09-12T15:11:18;20.80;95.60
11772;DHT22;12556;55.748;13.194;2022-09-12T15:13:45;20.70;95.50
11772;DHT22;12556;55.748;13.194;2022-09-12T15:16:14;20.60;95.50
11772;DHT22;12556;55.748;13.194;2022-09-12T15:18:41;20.50;95.40
11772;DHT22;12556;55.748;13.194;2022-09-12T15:21:11;20.50;95.60
11772;DHT22;12556;55.748;13.194;2022-09-12T15:23:41;20.50;95.80
11772;DHT22;12556;55.748;13.194;2022-09-12T15:26:11;20.40;95.80
11772;DHT22;12556;55.748;13.194;2022-09-12T15:28:38;20.40;96.00
11772;DHT22;12556;55.748;13.194;2022-09-12T15:31:09;20.50;95.90
11772;DHT22;12556;55.748;13.194;2022-09-12T15:33:38;20.50;95.80
11772;DHT22;12556;55.748;13.194;2022-09-12T15:36:12;20.40;95.50
11772;DHT22;12556;55.748;13.194;2022-09-12T15:38:39;20.30;95.40
11772;DHT22;12556;55.748;13.194;2022-09-12T15:41:10;20.20;95.40
11772;DHT22;12556;55.748;13.194;2022-09-12T15:43:37;20.10;95.40
11772;DHT22;12556;55.748;13.194;2022-09-12T15:46:04;19.90;95.40
11772;DHT22;12556;55.748;13.194;2022-09-12T15:48:31;20.00;95.60
11772;DHT22;12556;55.748;13.194;2022-09-12T15:51:00;20.00;95.80
11772;DHT22;12556;55.748;13.194;2022-09-12T15:53:28;20.00;96.00
11772;DHT22;12556;55.748;13.194;2022-09-12T15:55:56;20.00;96.30
11772;DHT22;12556;55.748;13.194;2022-09-12T15:58:23;19.90;96.50
11772;DHT22;12556;55.748;13.194;2022-09-12T16:00:50;19.80;96.70
11772;DHT22;12556;55.748;13.194;2022-09-12T16:03:20;19.80;96.90